Time;durP1;ratioP1;P1;durP2;ratioP2;P2;SDS_P1;SDS_P2;PMS_P1;PMS_P2;Temp;Humidity;BMP_temperature;BMP_pressure;BME280_temperature;BME280_humidity;BME280_pressure;Samples;Min_cycle;Max_cycle;Signal;HPM_P1;HPM_P2
2021/12/04 00:00:14;;;;;;;;;;;;;;;9.93;100.00;99837.34;5064602;28;20367;-61
2021/12/04 00:02:40;;;;;;;;;;;;;;;10.51;100.00;99823.97;5083471;28;19925;-60
2021/12/04 00:05:06;;;;;;;;;;;;;;;10.54;100.00;99826.19;5084027;28;19928;-60
2021/12/04 00:07:34;;;;;;;;;;;;;;;10.08;100.00;99823.66;5086189;28;19920;-60
2021/12/04 00:10:03;;;;;;;;;;;;;;;10.12;100.00;99821.41;5081204;28;19924;-59
2021/12/04 00:12:30;;;;;;;;;;;;;;;10.44;100.00;99816.00;5079917;28;20431;-60
2021/12/04 00:14:56;;;;;;;;;;;;;;;10.39;100.00;99818.50;5062769;28;19989;-61
2021/12/04 00:17:22;;;;;;;;;;;;;;;9.97;100.00;99821.72;5084126;28;20071;-60
2021/12/04 00:19:47;;;;;;;;;;;;;;;10.07;100.00;99819.38;5080761;28;20426;-60
2021/12/04 00:22:13;;;;;;;;;;;;;;;10.31;100.00;99803.56;5081295;28;19927;-60
2021/12/04 00:24:38;;;;;;;;;;;;;;;9.95;100.00;99808.56;5065091;28;20384;-61
2021/12/04 00:27:04;;;;;;;;;;;;;;;10.12;100.00;99808.84;5079905;28;19931;-60
2021/12/04 00:29:29;;;;;;;;;;;;;;;10.27;100.00;99808.53;5083150;28;19970;-60
2021/12/04 00:32:25;;;;;;;;;;;;;;;9.73;100.00;99826.78;5082445;28;20299;-61
2021/12/04 00:34:47;;;;;;;;;;;;;;;9.89;100.00;99818.25;5098661;28;19939;-59
2021/12/04 00:37:33;;;;;;;;;;;;;;;10.07;100.00;99815.88;5081755;28;19926;-60
2021/12/04 00:50:54;;;;;;;;;;;;;;;9.86;100.00;99799.19;5082531;28;20384;-61
2021/12/04 00:53:20;;;;;;;;;;;;;;;10.24;100.00;99789.44;5079273;28;19927;-62
2021/12/04 00:55:45;;;;;;;;;;;;;;;10.56;100.00;99800.06;5083596;28;19924;-60
2021/12/04 00:58:11;;;;;;;;;;;;;;;10.04;100.00;99801.94;5088272;28;20380;-60
2021/12/04 01:00:36;;;;;;;;;;;;;;;9.91;100.00;99802.03;5092767;28;19924;-58
2021/12/04 01:03:02;;;;;;;;;;;;;;;10.35;100.00;99796.72;5091514;28;20013;-61
2021/12/04 01:05:27;;;;;;;;;;;;;;;10.28;100.00;99793.31;5091841;28;19925;-61
2021/12/04 01:07:52;;;;;;;;;;;;;;;10.10;100.00;99797.56;5075104;28;19987;-61
2021/12/04 01:10:18;;;;;;;;;;;;;;;10.16;100.00;99793.19;5092854;28;19924;-61
2021/12/04 01:12:43;;;;;;;;;;;;;;;10.06;100.00;99793.69;5074816;28;19924;-61
2021/12/04 01:15:09;;;;;;;;;;;;;;;10.75;100.00;99800.91;5091387;28;19916;-59
2021/12/04 01:17:34;;;;;;;;;;;;;;;10.14;100.00;99804.09;5092131;28;19928;-60
2021/12/04 01:20:00;;;;;;;;;;;;;;;10.34;100.00;99800.44;5092503;28;19931;-59
2021/12/04 01:22:26;;;;;;;;;;;;;;;10.37;100.00;99801.88;5091436;28;20336;-61
2021/12/04 01:24:53;;;;;;;;;;;;;;;10.40;100.00;99796.06;5092727;28;19999;-60
2021/12/04 01:27:18;;;;;;;;;;;;;;;10.54;100.00;99802.16;5092591;28;19920;-60
2021/12/04 01:29:43;;;;;;;;;;;;;;;10.38;100.00;99798.97;5092623;28;20444;-60
2021/12/04 01:32:09;;;;;;;;;;;;;;;10.47;100.00;99800.34;5092646;28;19924;-62
2021/12/04 01:34:35;;;;;;;;;;;;;;;10.42;100.00;99796.69;5071070;28;19924;-60
2021/12/04 01:37:01;;;;;;;;;;;;;;;10.74;100.00;99793.94;5071016;28;19920;-60
2021/12/04 01:39:27;;;;;;;;;;;;;;;10.46;100.00;99796.06;5071072;28;19935;-60
2021/12/04 01:41:52;;;;;;;;;;;;;;;10.23;100.00;99793.16;5072699;28;19921;-61
2021/12/04 01:44:18;;;;;;;;;;;;;;;10.14;100.00;99790.72;5077024;28;19924;-60
2021/12/04 01:46:43;;;;;;;;;;;;;;;10.13;100.00;99793.63;5092415;28;20037;-62
2021/12/04 01:49:09;;;;;;;;;;;;;;;10.61;100.00;99786.88;5091067;28;19974;-60
2021/12/04 01:51:34;;;;;;;;;;;;;;;10.61;100.00;99785.00;5091073;28;19932;-60
2021/12/04 01:54:00;;;;;;;;;;;;;;;10.35;100.00;99775.34;5091187;28;19928;-61
2021/12/04 01:56:29;;;;;;;;;;;;;;;10.33;100.00;99777.44;5092800;28;19920;-60
2021/12/04 01:58:55;;;;;;;;;;;;;;;10.40;100.00;99770.22;5094669;28;20248;-59
2021/12/04 02:01:20;;;;;;;;;;;;;;;10.15;100.00;99763.00;5094554;28;20252;-59
2021/12/04 02:03:45;;;;;;;;;;;;;;;10.50;100.00;99756.34;5094564;28;19963;-59
2021/12/04 02:06:12;;;;;;;;;;;;;;;10.26;100.00;99756.09;5077989;28;19920;-61
2021/12/04 02:08:38;;;;;;;;;;;;;;;10.07;100.00;99747.25;5094609;28;19916;-60
2021/12/04 02:11:03;;;;;;;;;;;;;;;10.57;100.00;99746.38;5095671;28;19926;-59
2021/12/04 02:13:29;;;;;;;;;;;;;;;10.23;100.00;99743.19;5094530;28;20283;-60
2021/12/04 02:15:55;;;;;;;;;;;;;;;10.30;100.00;99740.47;5095792;28;19920;-61
2021/12/04 02:18:21;;;;;;;;;;;;;;;10.16;100.00;99740.59;5077603;28;19931;-62
2021/12/04 02:20:47;;;;;;;;;;;;;;;10.11;100.00;99732.41;5094231;28;19920;-60
2021/12/04 02:23:13;;;;;;;;;;;;;;;10.13;100.00;99733.00;5095753;28;19927;-60
2021/12/04 02:25:39;;;;;;;;;;;;;;;10.18;100.00;99729.69;5095610;28;19920;-60
2021/12/04 02:28:08;;;;;;;;;;;;;;;10.32;100.00;99717.00;5078126;28;19924;-61
2021/12/04 02:30:36;;;;;;;;;;;;;;;9.99;100.00;99726.97;5077946;28;19920;-59
2021/12/04 02:33:02;;;;;;;;;;;;;;;10.13;100.00;99719.63;5094161;28;19942;-60
2021/12/04 02:35:27;;;;;;;;;;;;;;;10.08;100.00;99722.16;5094137;28;19938;-61
2021/12/04 02:37:53;;;;;;;;;;;;;;;10.41;100.00;99715.72;5095139;28;20003;-60
2021/12/04 02:40:21;;;;;;;;;;;;;;;10.49;100.00;99717.25;5095410;28;20375;-59
2021/12/04 02:42:47;;;;;;;;;;;;;;;11.00;100.00;99717.09;5093161;28;20295;-60
2021/12/04 02:45:13;;;;;;;;;;;;;;;10.79;100.00;99727.22;5095367;28;19924;-60
2021/12/04 02:47:39;;;;;;;;;;;;;;;10.58;100.00;99717.78;5094685;28;19927;-61
2021/12/04 02:50:06;;;;;;;;;;;;;;;10.50;100.00;99715.41;5095228;28;19920;-61
2021/12/04 02:52:32;;;;;;;;;;;;;;;10.55;100.00;99715.56;5094942;28;19958;-60
2021/12/04 02:54:58;;;;;;;;;;;;;;;10.52;100.00;99707.97;5093553;28;19971;-60
2021/12/04 02:57:23;;;;;;;;;;;;;;;10.66;100.00;99703.31;5094739;28;20297;-61
2021/12/04 02:59:50;;;;;;;;;;;;;;;10.54;100.00;99709.41;5093709;28;19924;-60
2021/12/04 03:02:24;;;;;;;;;;;;;;;10.69;100.00;99701.00;5093513;28;19924;-60
2021/12/04 03:04:54;;;;;;;;;;;;;;;10.54;100.00;99697.88;5093735;28;19920;-60
2021/12/04 03:07:20;;;;;;;;;;;;;;;10.44;100.00;99699.22;5094484;28;19920;-59
2021/12/04 03:09:46;;;;;;;;;;;;;;;10.80;100.00;99707.47;5094716;28;19955;-60
2021/12/04 03:12:12;;;;;;;;;;;;;;;11.21;100.00;99701.59;5094836;28;20008;-60
2021/12/04 03:14:38;;;;;;;;;;;;;;;10.96;100.00;99695.31;5094433;28;19996;-59
2021/12/04 03:17:03;;;;;;;;;;;;;;;10.96;100.00;99697.19;5094411;28;19920;-59
2021/12/04 03:19:29;;;;;;;;;;;;;;;11.18;100.00;99703.66;5094351;28;19931;-60
2021/12/04 03:21:55;;;;;;;;;;;;;;;10.87;100.00;99685.97;5094508;28;19942;-60
2021/12/04 03:24:21;;;;;;;;;;;;;;;10.83;100.00;99692.81;5093140;28;20007;-58
2021/12/04 03:26:49;;;;;;;;;;;;;;;10.75;100.00;99683.25;5093220;28;20344;-60
2021/12/04 03:29:18;;;;;;;;;;;;;;;10.81;100.00;99677.00;5076355;28;20287;-60
2021/12/04 03:42:30;;;;;;;;;;;;;;;11.08;100.00;99667.81;5093000;28;19920;-60
2021/12/04 03:44:55;;;;;;;;;;;;;;;10.94;100.00;99654.59;5093822;28;19924;-60
2021/12/04 03:47:22;;;;;;;;;;;;;;;10.94;100.00;99653.78;5072336;28;20138;-59
2021/12/04 03:49:48;;;;;;;;;;;;;;;11.32;100.00;99655.28;5093440;28;19924;-60
2021/12/04 03:52:14;;;;;;;;;;;;;;;11.06;100.00;99654.66;5092988;28;19962;-59
2021/12/04 03:54:39;;;;;;;;;;;;;;;11.10;100.00;99647.78;5093281;28;19916;-60
2021/12/04 03:57:05;;;;;;;;;;;;;;;11.09;100.00;99651.50;5077246;28;20372;-59
2021/12/04 03:59:31;;;;;;;;;;;;;;;11.42;100.00;99644.03;5072396;28;19931;-60
2021/12/04 04:01:57;;;;;;;;;;;;;;;11.37;100.00;99644.72;5073792;28;19924;-60
2021/12/04 04:04:22;;;;;;;;;;;;;;;11.54;100.00;99642.19;5073695;28;20033;-60
2021/12/04 04:06:48;;;;;;;;;;;;;;;11.56;100.00;99637.44;5073193;28;20045;-59
2021/12/04 04:09:13;;;;;;;;;;;;;;;11.64;100.00;99636.25;5073586;28;20383;-60
2021/12/04 04:11:39;;;;;;;;;;;;;;;11.75;100.00;99637.28;5073131;28;20003;-60
2021/12/04 04:14:04;;;;;;;;;;;;;;;11.85;100.00;99639.41;5071991;28;19936;-60
2021/12/04 04:16:31;;;;;;;;;;;;;;;11.79;100.00;99633.13;5073658;28;20310;-60
2021/12/04 04:18:56;;;;;;;;;;;;;;;11.75;100.00;99635.44;5073253;28;19924;-60
2021/12/04 04:21:21;;;;;;;;;;;;;;;11.74;100.00;99638.34;5073076;28;19927;-61
2021/12/04 04:23:47;;;;;;;;;;;;;;;11.65;100.00;99631.72;5073451;28;19917;-60
2021/12/04 04:26:12;;;;;;;;;;;;;;;11.77;100.00;99621.84;5074084;28;19928;-60
2021/12/04 04:28:38;;;;;;;;;;;;;;;11.69;100.00;99627.53;5072953;28;19932;-60
2021/12/04 04:31:03;;;;;;;;;;;;;;;11.42;100.00;99623.44;5078136;28;19921;-61
2021/12/04 04:33:35;;;;;;;;;;;;;;;11.55;100.00;99629.63;5077875;28;19920;-58
2021/12/04 04:36:09;;;;;;;;;;;;;;;11.71;100.00;99631.59;5082081;28;19931;-60
2021/12/04 05:13:19;;;;;;;;;;;;;;;11.13;100.00;99606.41;5074829;28;20330;-60
2021/12/04 05:21:03;;;;;;;;;;;;;;;10.99;100.00;99595.88;5092734;28;19920;-59
2021/12/04 05:23:30;;;;;;;;;;;;;;;11.52;100.00;99593.38;5092860;28;19928;-60
2021/12/04 05:25:55;;;;;;;;;;;;;;;11.48;100.00;99590.38;5091231;28;19956;-60
2021/12/04 05:28:20;;;;;;;;;;;;;;;11.46;100.00;99594.31;5074829;28;19960;-59
2021/12/04 05:30:46;;;;;;;;;;;;;;;10.95;100.00;99596.56;5092493;28;19931;-60
2021/12/04 05:33:11;;;;;;;;;;;;;;;11.09;100.00;99597.19;5093921;28;20333;-60
2021/12/04 05:35:37;;;;;;;;;;;;;;;11.17;100.00;99594.97;5078479;28;19927;-60
2021/12/04 05:38:02;;;;;;;;;;;;;;;11.05;100.00;99597.63;5096955;28;19927;-62
2021/12/04 05:40:27;;;;;;;;;;;;;;;10.99;100.00;99601.22;5096451;28;20310;-60
2021/12/04 05:43:00;;;;;;;;;;;;;;;11.37;100.00;99606.44;5094671;28;19993;-60
2021/12/04 05:45:27;;;;;;;;;;;;;;;11.32;100.00;99604.44;5095243;28;19931;-61
2021/12/04 05:48:05;;;;;;;;;;;;;;;10.89;100.00;99599.09;5096248;28;20372;-60
2021/12/04 05:53:18;;;;;;;;;;;;;;;10.97;100.00;99599.84;5079913;28;19920;-61
2021/12/04 05:55:55;;;;;;;;;;;;;;;11.09;100.00;99586.50;5074531;28;19925;-60
2021/12/04 05:58:22;;;;;;;;;;;;;;;11.01;100.00;99576.94;5075206;28;20018;-60
2021/12/04 06:00:47;;;;;;;;;;;;;;;11.07;100.00;99583.22;5074651;28;19916;-60
2021/12/04 06:03:13;;;;;;;;;;;;;;;10.98;100.00;99583.56;5075522;28;20323;-60
2021/12/04 06:05:38;;;;;;;;;;;;;;;11.23;100.00;99590.56;5075524;28;19920;-60
2021/12/04 06:08:03;;;;;;;;;;;;;;;11.07;100.00;99583.22;5076041;28;19920;-60
2021/12/04 06:10:29;;;;;;;;;;;;;;;10.89;100.00;99592.97;5085681;28;19920;-61
2021/12/04 06:12:54;;;;;;;;;;;;;;;11.03;100.00;99578.31;5079750;28;19935;-60
2021/12/04 06:15:20;;;;;;;;;;;;;;;10.88;100.00;99569.94;5074513;28;20305;-61
2021/12/04 06:17:45;;;;;;;;;;;;;;;11.06;100.00;99569.03;5075255;28;19927;-61
2021/12/04 06:22:55;;;;;;;;;;;;;;;10.76;100.00;99565.34;5075353;28;19941;-60
2021/12/04 06:25:24;;;;;;;;;;;;;;;10.92;100.00;99560.41;5075328;28;19917;-60
2021/12/04 06:27:50;;;;;;;;;;;;;;;10.92;100.00;99567.59;5074547;28;20233;-61
2021/12/04 06:30:17;;;;;;;;;;;;;;;10.90;100.00;99557.13;5075195;28;19935;-61
2021/12/04 06:32:42;;;;;;;;;;;;;;;10.75;100.00;99563.72;5073350;28;20330;-59
2021/12/04 06:35:09;;;;;;;;;;;;;;;10.74;100.00;99567.44;5075365;28;19916;-60
2021/12/04 06:37:34;;;;;;;;;;;;;;;10.73;100.00;99562.34;5074013;28;19920;-60
2021/12/04 06:40:00;;;;;;;;;;;;;;;10.50;100.00;99557.69;5073798;28;20015;-60
2021/12/04 06:42:26;;;;;;;;;;;;;;;10.66;100.00;99559.75;5073875;28;19985;-61
2021/12/04 06:44:54;;;;;;;;;;;;;;;10.58;100.00;99568.06;5073176;28;19924;-61
2021/12/04 06:47:20;;;;;;;;;;;;;;;10.69;100.00;99563.81;5073377;28;19921;-61
2021/12/04 06:49:45;;;;;;;;;;;;;;;10.49;100.00;99561.41;5074873;28;19920;-60
2021/12/04 06:52:21;;;;;;;;;;;;;;;10.51;100.00;99556.66;5075049;28;19932;-61
2021/12/04 06:54:58;;;;;;;;;;;;;;;10.56;100.00;99554.13;5073258;28;20360;-62
2021/12/04 06:57:24;;;;;;;;;;;;;;;10.59;100.00;99553.66;5074822;28;19921;-60
2021/12/04 06:59:52;;;;;;;;;;;;;;;10.86;100.00;99547.94;5074627;28;20406;-59
2021/12/04 07:02:18;;;;;;;;;;;;;;;10.54;100.00;99548.19;5074379;28;19927;-60
2021/12/04 07:04:44;;;;;;;;;;;;;;;10.74;100.00;99550.59;5074241;28;19916;-60
2021/12/04 07:07:09;;;;;;;;;;;;;;;10.98;100.00;99551.44;5074556;28;19924;-59
2021/12/04 07:09:36;;;;;;;;;;;;;;;10.78;100.00;99551.75;5074435;28;19931;-61
2021/12/04 07:12:03;;;;;;;;;;;;;;;10.65;100.00;99558.13;5082886;28;19920;-60
2021/12/04 07:14:28;;;;;;;;;;;;;;;11.09;100.00;99559.75;5094601;28;20392;-60
2021/12/04 07:16:54;;;;;;;;;;;;;;;10.76;100.00;99562.69;5083502;28;20425;-60
2021/12/04 07:19:19;;;;;;;;;;;;;;;10.61;100.00;99564.97;5084686;28;19927;-60
2021/12/04 07:21:45;;;;;;;;;;;;;;;11.11;100.00;99553.09;5082491;28;19974;-60
2021/12/04 07:24:12;;;;;;;;;;;;;;;11.05;100.00;99556.69;5067928;28;20283;-61
2021/12/04 07:26:37;;;;;;;;;;;;;;;10.95;100.00;99549.25;5082385;28;20295;-60
2021/12/04 07:29:02;;;;;;;;;;;;;;;10.92;100.00;99544.34;5084544;28;19932;-60
2021/12/04 07:31:29;;;;;;;;;;;;;;;10.94;100.00;99546.78;5082502;28;20273;-60
2021/12/04 07:33:54;;;;;;;;;;;;;;;10.72;100.00;99561.50;5083702;28;20393;-60
2021/12/04 07:36:20;;;;;;;;;;;;;;;10.81;100.00;99574.53;5083443;28;19952;-61
2021/12/04 07:38:46;;;;;;;;;;;;;;;11.21;100.00;99568.59;5080876;28;19928;-60
2021/12/04 07:41:11;;;;;;;;;;;;;;;10.67;100.00;99573.91;5084101;28;20288;-60
2021/12/04 07:43:37;;;;;;;;;;;;;;;10.81;100.00;99563.84;5083648;28;19924;-59
2021/12/04 07:46:02;;;;;;;;;;;;;;;10.52;100.00;99568.97;5081978;28;19963;-61
2021/12/04 07:48:28;;;;;;;;;;;;;;;10.34;100.00;99565.25;5084760;28;19931;-60
2021/12/04 07:50:53;;;;;;;;;;;;;;;10.43;100.00;99571.16;5083062;28;20356;-60
2021/12/04 07:53:19;;;;;;;;;;;;;;;10.78;100.00;99570.47;5081931;28;20356;-59
2021/12/04 07:55:44;;;;;;;;;;;;;;;10.45;100.00;99559.19;5083243;28;19985;-60
2021/12/04 07:58:09;;;;;;;;;;;;;;;10.42;100.00;99554.31;5082502;28;19960;-60
2021/12/04 08:00:35;;;;;;;;;;;;;;;10.24;100.00;99559.66;5081654;28;19924;-61
2021/12/04 08:03:03;;;;;;;;;;;;;;;10.94;100.00;99554.81;5083836;28;19931;-60
2021/12/04 08:05:29;;;;;;;;;;;;;;;11.00;100.00;99549.34;5082465;28;19932;-59
2021/12/04 08:07:55;;;;;;;;;;;;;;;10.68;100.00;99556.84;5083754;28;19986;-59
2021/12/04 08:10:21;;;;;;;;;;;;;;;10.71;100.00;99559.88;5081239;28;19925;-60
2021/12/04 08:12:47;;;;;;;;;;;;;;;10.67;100.00;99553.34;5082699;28;19977;-60
2021/12/04 08:15:12;;;;;;;;;;;;;;;10.50;100.00;99553.19;5091980;28;20397;-61
2021/12/04 08:17:38;;;;;;;;;;;;;;;10.87;100.00;99547.72;5093610;28;20009;-61
2021/12/04 08:20:05;;;;;;;;;;;;;;;10.66;100.00;99543.72;5075516;28;20384;-60
2021/12/04 08:22:31;;;;;;;;;;;;;;;10.70;100.00;99536.84;5092173;28;20291;-61
2021/12/04 08:24:56;;;;;;;;;;;;;;;11.04;100.00;99525.66;5077863;28;20101;-60
2021/12/04 08:27:22;;;;;;;;;;;;;;;10.93;100.00;99523.75;5086132;28;19977;-61
2021/12/04 08:29:47;;;;;;;;;;;;;;;10.72;100.00;99516.03;5092573;28;20387;-60
2021/12/04 08:32:13;;;;;;;;;;;;;;;10.61;100.00;99514.16;5094147;28;19916;-60
2021/12/04 08:34:38;;;;;;;;;;;;;;;10.79;100.00;99507.94;5094450;28;19920;-59
2021/12/04 08:37:04;;;;;;;;;;;;;;;10.86;100.00;99508.63;5094291;28;19974;-60
2021/12/04 08:39:30;;;;;;;;;;;;;;;10.72;100.00;99491.97;5093661;28;19924;-61
2021/12/04 08:41:56;;;;;;;;;;;;;;;10.83;100.00;99493.06;5094210;28;19916;-60
2021/12/04 08:44:21;;;;;;;;;;;;;;;10.32;100.00;99479.16;5096393;28;20431;-61
2021/12/04 08:46:47;;;;;;;;;;;;;;;10.61;100.00;99474.06;5105536;28;20414;-60
2021/12/04 08:49:12;;;;;;;;;;;;;;;10.79;100.00;99481.19;5105751;28;19935;-61
2021/12/04 08:51:38;;;;;;;;;;;;;;;10.74;100.00;99468.50;5094991;28;19919;-61
2021/12/04 08:54:04;;;;;;;;;;;;;;;10.57;100.00;99473.69;5092769;28;19982;-61
2021/12/04 08:56:30;;;;;;;;;;;;;;;10.52;100.00;99472.75;5091035;28;19960;-61
2021/12/04 08:58:56;;;;;;;;;;;;;;;10.74;100.00;99475.72;5091267;28;20050;-60
2021/12/04 09:01:24;;;;;;;;;;;;;;;10.89;100.00;99488.66;5090682;28;20007;-60
2021/12/04 09:03:52;;;;;;;;;;;;;;;10.88;100.00;99482.47;5091464;28;19920;-58
2021/12/04 09:06:18;;;;;;;;;;;;;;;10.85;100.00;99485.59;5093337;28;19967;-61
2021/12/04 09:08:44;;;;;;;;;;;;;;;10.85;100.00;99495.50;5096874;28;19920;-61
2021/12/04 09:11:12;;;;;;;;;;;;;;;10.84;100.00;99488.50;5096183;28;20007;-61
2021/12/04 09:13:38;;;;;;;;;;;;;;;10.82;100.00;99495.94;5096870;28;20368;-59
2021/12/04 09:16:04;;;;;;;;;;;;;;;11.05;100.00;99500.53;5073899;28;19920;-60
2021/12/04 09:18:29;;;;;;;;;;;;;;;10.95;100.00;99493.06;5084676;28;19957;-61
2021/12/04 09:20:56;;;;;;;;;;;;;;;11.02;100.00;99496.44;5084246;28;19928;-60
2021/12/04 09:23:24;;;;;;;;;;;;;;;10.71;100.00;99486.84;5077067;28;19924;-60
2021/12/04 09:25:53;;;;;;;;;;;;;;;11.02;100.00;99484.94;5075102;28;19965;-61
2021/12/04 09:28:25;;;;;;;;;;;;;;;10.65;100.00;99479.75;5075481;28;19971;-60
2021/12/04 10:18:13;;;;;;;;;;;;;;;11.17;100.00;99428.28;5075397;28;19921;-61
2021/12/04 10:34:30;;;;;;;;;;;;;;;11.19;100.00;99418.97;5075459;28;19924;-60
2021/12/04 10:37:18;;;;;;;;;;;;;;;11.13;100.00;99408.41;5057398;28;20410;-61
2021/12/04 10:39:44;;;;;;;;;;;;;;;11.24;100.00;99404.88;5074213;28;20296;-61
2021/12/04 10:42:17;;;;;;;;;;;;;;;11.22;100.00;99411.53;5074994;28;19920;-61
2021/12/04 10:44:51;;;;;;;;;;;;;;;11.49;100.00;99409.13;5073989;28;20319;-61
2021/12/04 10:47:22;;;;;;;;;;;;;;;11.47;100.00;99404.03;5073875;28;19920;-60
2021/12/04 10:53:12;;;;;;;;;;;;;;;11.21;100.00;99393.84;5073510;28;19978;-61
2021/12/04 10:55:25;;;;;;;;;;;;;;;11.29;100.00;99388.13;5076890;28;19921;-62
2021/12/04 10:58:31;;;;;;;;;;;;;;;11.51;100.00;99374.91;5073708;28;19975;-60
2021/12/04 11:01:04;;;;;;;;;;;;;;;11.33;100.00;99368.69;5074843;28;19931;-60
2021/12/04 11:43:10;;;;;;;;;;;;;;;11.15;100.00;99324.16;5074493;28;19928;-59
2021/12/04 11:46:13;;;;;;;;;;;;;;;11.27;100.00;99309.94;5056463;28;19925;-60
2021/12/04 11:48:40;;;;;;;;;;;;;;;11.65;100.00;99311.19;5077275;28;20372;-61
2021/12/04 11:51:11;;;;;;;;;;;;;;;11.47;100.00;99315.69;5077466;28;19924;-59
2021/12/04 11:53:36;;;;;;;;;;;;;;;11.20;100.00;99320.78;5078234;28;19924;-61
2021/12/04 11:56:02;;;;;;;;;;;;;;;11.38;100.00;99321.66;5076856;28;19962;-61
2021/12/04 11:58:31;;;;;;;;;;;;;;;11.70;100.00;99308.59;5072819;28;19921;-58
2021/12/04 12:00:58;;;;;;;;;;;;;;;11.51;100.00;99304.50;5074952;28;19981;-60
2021/12/04 12:03:26;;;;;;;;;;;;;;;11.80;100.00;99305.31;5083958;28;19921;-59
2021/12/04 12:05:54;;;;;;;;;;;;;;;11.50;100.00;99305.56;5096646;28;19998;-61
2021/12/04 12:08:26;;;;;;;;;;;;;;;11.96;100.00;99303.69;5088618;28;19927;-60
2021/12/04 12:10:54;;;;;;;;;;;;;;;12.03;100.00;99290.97;5084059;28;19927;-62
2021/12/04 12:13:40;;;;;;;;;;;;;;;11.78;100.00;99299.38;5079195;28;19939;-60
2021/12/04 12:16:17;;;;;;;;;;;;;;;11.81;100.00;99292.72;5075603;28;19924;-56
2021/12/04 12:19:03;;;;;;;;;;;;;;;12.22;100.00;99282.69;5074457;28;19964;-61
2021/12/04 12:21:40;;;;;;;;;;;;;;;11.98;100.00;99272.13;5072715;28;20017;-61
2021/12/04 12:27:28;;;;;;;;;;;;;;;11.95;100.00;99274.44;5074055;28;20445;-61
2021/12/04 12:37:50;;;;;;;;;;;;;;;12.05;100.00;99269.31;5073132;28;20023;-60
2021/12/04 12:40:16;;;;;;;;;;;;;;;12.15;100.00;99264.09;5071251;28;20025;-59
2021/12/04 12:42:43;;;;;;;;;;;;;;;12.08;100.00;99260.78;5078062;28;19956;-59
2021/12/04 12:45:16;;;;;;;;;;;;;;;11.83;100.00;99259.28;5092787;28;19946;-54
2021/12/04 12:47:49;;;;;;;;;;;;;;;12.25;100.00;99263.44;5093343;28;19920;-60
2021/12/04 12:50:34;;;;;;;;;;;;;;;11.98;100.00;99269.44;5091717;28;20372;-60
2021/12/04 12:53:04;;;;;;;;;;;;;;;11.64;100.00;99255.19;5092855;28;20408;-60
2021/12/04 12:55:34;;;;;;;;;;;;;;;11.64;100.00;99261.34;5091428;28;20368;-60
2021/12/04 12:58:11;;;;;;;;;;;;;;;11.56;100.00;99248.38;5092154;28;20376;-61
2021/12/04 13:11:47;;;;;;;;;;;;;;;11.45;100.00;99263.44;5093170;28;19920;-60
2021/12/04 13:14:12;;;;;;;;;;;;;;;11.79;100.00;99265.34;5092677;28;20387;-61
2021/12/04 13:16:41;;;;;;;;;;;;;;;11.47;100.00;99267.50;5098153;28;19920;-61
2021/12/04 13:19:10;;;;;;;;;;;;;;;11.82;100.00;99260.34;5092780;28;20333;-61
2021/12/04 13:21:38;;;;;;;;;;;;;;;11.88;100.00;99264.72;5092988;28;19930;-62
2021/12/04 13:24:04;;;;;;;;;;;;;;;11.99;100.00;99264.88;5092826;28;19927;-62
2021/12/04 13:26:31;;;;;;;;;;;;;;;11.99;100.00;99257.66;5091991;28;19952;-61
2021/12/04 13:28:59;;;;;;;;;;;;;;;11.81;100.00;99249.84;5092787;28;20355;-66
2021/12/04 13:31:25;;;;;;;;;;;;;;;11.83;100.00;99245.88;5093691;28;19920;-60
2021/12/04 13:33:51;;;;;;;;;;;;;;;11.90;100.00;99241.19;5093500;28;19923;-61
2021/12/04 13:36:18;;;;;;;;;;;;;;;11.64;100.00;99247.16;5092852;28;19924;-60
2021/12/04 13:38:44;;;;;;;;;;;;;;;12.33;100.00;99243.47;5092673;28;20355;-60
2021/12/04 13:41:10;;;;;;;;;;;;;;;12.33;100.00;99241.56;5091691;28;20019;-61
2021/12/04 13:43:36;;;;;;;;;;;;;;;12.48;100.00;99240.19;5092188;28;20010;-62
2021/12/04 13:46:03;;;;;;;;;;;;;;;12.28;100.00;99238.81;5092690;28;20019;-60
2021/12/04 13:48:30;;;;;;;;;;;;;;;12.10;100.00;99231.88;5092381;28;19920;-61
2021/12/04 13:50:55;;;;;;;;;;;;;;;12.05;100.00;99237.16;5092448;28;20444;-60
2021/12/04 13:53:27;;;;;;;;;;;;;;;11.99;100.00;99240.75;5091676;28;19924;-60
2021/12/04 13:55:57;;;;;;;;;;;;;;;12.01;100.00;99238.72;5096166;28;19972;-61
2021/12/04 13:58:23;;;;;;;;;;;;;;;12.17;100.00;99237.84;5095784;28;19927;-59
2021/12/04 14:00:48;;;;;;;;;;;;;;;12.05;100.00;99239.84;5095165;28;19920;-60
2021/12/04 14:03:19;;;;;;;;;;;;;;;11.85;100.00;99235.75;5078097;28;19924;-62
2021/12/04 14:05:44;;;;;;;;;;;;;;;12.39;100.00;99234.41;5078520;28;19919;-62
2021/12/04 14:08:10;;;;;;;;;;;;;;;11.95;100.00;99242.31;5095209;28;20367;-61
2021/12/04 14:10:42;;;;;;;;;;;;;;;11.63;100.00;99232.94;5095863;28;20379;-60
2021/12/04 14:13:08;;;;;;;;;;;;;;;11.91;100.00;99240.13;5096012;28;19982;-62
2021/12/04 14:15:34;;;;;;;;;;;;;;;11.91;100.00;99239.31;5096164;28;19927;-61
2021/12/04 14:18:09;;;;;;;;;;;;;;;11.98;100.00;99239.13;5095102;28;19916;-62
2021/12/04 14:20:36;;;;;;;;;;;;;;;11.42;100.00;99237.16;5094542;28;19921;-61
2021/12/04 14:23:02;;;;;;;;;;;;;;;11.76;100.00;99232.66;5095863;28;20443;-61
2021/12/04 14:25:28;;;;;;;;;;;;;;;12.08;100.00;99231.31;5095407;28;20019;-60
2021/12/04 14:27:54;;;;;;;;;;;;;;;12.09;100.00;99222.22;5094506;28;19931;-59
2021/12/04 14:30:21;;;;;;;;;;;;;;;12.11;100.00;99222.78;5095538;28;19920;-59
2021/12/04 14:32:53;;;;;;;;;;;;;;;12.09;100.00;99224.06;5094182;28;19942;-59
2021/12/04 14:35:19;;;;;;;;;;;;;;;12.03;100.00;99224.00;5094571;28;19931;-60
2021/12/04 14:37:49;;;;;;;;;;;;;;;11.81;100.00;99225.75;5095426;28;19927;-60
2021/12/04 14:40:16;;;;;;;;;;;;;;;11.80;100.00;99224.97;5095473;28;19934;-60
2021/12/04 14:42:42;;;;;;;;;;;;;;;12.01;100.00;99228.78;5094484;28;19969;-59
2021/12/04 14:45:13;;;;;;;;;;;;;;;11.85;100.00;99229.56;5111557;28;20020;-60
2021/12/04 14:47:43;;;;;;;;;;;;;;;12.14;100.00;99238.34;5094510;28;19920;-60
2021/12/04 14:50:09;;;;;;;;;;;;;;;11.70;100.00;99238.97;5095465;28;19920;-60
2021/12/04 14:52:35;;;;;;;;;;;;;;;11.73;100.00;99235.81;5094995;28;19934;-60
2021/12/04 14:55:16;;;;;;;;;;;;;;;11.87;100.00;99240.84;5097061;28;19962;-61
2021/12/04 14:57:46;;;;;;;;;;;;;;;12.03;100.00;99248.09;5094227;28;20476;-61
2021/12/04 15:00:17;;;;;;;;;;;;;;;11.68;100.00;99259.00;5094439;28;19920;-60
2021/12/04 15:02:57;;;;;;;;;;;;;;;11.90;100.00;99267.16;5093544;28;20389;-60
2021/12/04 15:05:27;;;;;;;;;;;;;;;11.84;100.00;99262.75;5093399;28;19920;-59
2021/12/04 15:08:19;;;;;;;;;;;;;;;11.72;100.00;99268.19;5095546;28;19920;-59
2021/12/04 15:10:47;;;;;;;;;;;;;;;11.67;100.00;99276.97;5094514;28;19920;-61
2021/12/04 15:13:18;;;;;;;;;;;;;;;11.88;100.00;99285.34;5090280;28;19920;-59
2021/12/04 15:15:43;;;;;;;;;;;;;;;11.91;100.00;99292.91;5094553;28;20410;-60
2021/12/04 15:18:12;;;;;;;;;;;;;;;11.88;100.00;99294.19;5094191;28;19987;-61
2021/12/04 15:20:42;;;;;;;;;;;;;;;11.73;100.00;99291.22;5094449;28;19970;-60
2021/12/04 15:23:09;;;;;;;;;;;;;;;11.87;100.00;99297.91;5077613;28;19924;-60
2021/12/04 15:25:35;;;;;;;;;;;;;;;11.86;100.00;99309.69;5094402;28;20371;-61
2021/12/04 15:28:12;;;;;;;;;;;;;;;11.58;100.00;99306.00;5092282;28;19928;-59
2021/12/04 15:30:42;;;;;;;;;;;;;;;11.65;100.00;99307.69;5094309;28;20414;-60
2021/12/04 15:33:07;;;;;;;;;;;;;;;11.95;100.00;99318.16;5093247;28;19920;-60
2021/12/04 15:35:40;;;;;;;;;;;;;;;12.39;100.00;99320.22;5093053;28;19916;-60
2021/12/04 15:38:16;;;;;;;;;;;;;;;12.32;100.00;99327.59;5076311;28;20388;-61
2021/12/04 15:43:55;;;;;;;;;;;;;;;12.21;100.00;99340.03;5094065;28;19920;-61
2021/12/04 15:54:27;;;;;;;;;;;;;;;11.95;100.00;99358.34;5094350;28;20030;-60
2021/12/04 15:56:54;;;;;;;;;;;;;;;12.19;100.00;99363.59;5092566;28;19924;-59
2021/12/04 15:59:24;;;;;;;;;;;;;;;11.87;100.00;99358.69;5092691;28;20366;-59
2021/12/04 16:01:52;;;;;;;;;;;;;;;12.07;100.00;99360.97;5094387;28;20015;-60
2021/12/04 16:04:26;;;;;;;;;;;;;;;11.99;100.00;99361.31;5094060;28;20379;-61